This is the latest recevied weather packets stored in our database for station/object SQ5LTL-2. If no packets are shown the sender has not sent any weather packets the latest 10 day(s).
| Time | Temp. | Humidity | Pressure | Rain* | Wind** | Luminosity | Snow |
|---|---|---|---|---|---|---|---|
| 1777407918 | 2.78° C | 70% | 1025.3 hPa | 0 mm | - | 0 W/m² | - |
| 1777407618 | 2.78° C | 70% | 1025.2 hPa | 0 mm | - | 0 W/m² | - |
| 1777407316 | 3.33° C | 69% | 1025.3 hPa | 0 mm | - | 0 W/m² | - |
| 1777407035 | 3.89° C | 68% | 1025.3 hPa | 0 mm | - | 0 W/m² | - |
| 1777406733 | 3.89° C | 67% | 1025.2 hPa | 0 mm | - | 0 W/m² | - |
| 1777406433 | 3.89° C | 66% | 1025.3 hPa | 0 mm | - | 0 W/m² | - |
| 1777406130 | 4.44° C | 66% | 1025.3 hPa | 0 mm | - | 0 W/m² | - |
| 1777405829 | 4.44° C | 65% | 1025.1 hPa | 0 mm | - | 0 W/m² | - |
| 1777404925 | 5° C | 65% | 1025.3 hPa | 0 mm | - | 0 W/m² | - |
| 1777404623 | 5° C | 64% | 1025.3 hPa | 0 mm | - | 0 W/m² | - |
| 1777404321 | 5° C | 63% | 1025.2 hPa | 0 mm | - | 0 W/m² | - |
| 1777404020 | 5° C | 63% | 1025.2 hPa | 0 mm | - | 0 W/m² | - |
| 1777403719 | 5.56° C | 61% | 1025.3 hPa | 0 mm | - | 0 W/m² | - |
| 1777403418 | 5° C | 61% | 1025.2 hPa | 0 mm | - | 0 W/m² | - |
| 1777403116 | 5.56° C | 61% | 1025.3 hPa | 0 mm | - | 0 W/m² | - |
| 1777401629 | 6.67° C | 54% | 1025 hPa | 0 mm | - | 0 W/m² | - |
| 1777401026 | 5° C | 59% | 1024.9 hPa | 0 mm | - | 0 W/m² | - |
| 1777400724 | 3.89° C | 66% | 1024.9 hPa | 0 mm | - | 0 W/m² | - |
| 1777399217 | 5.56° C | 56% | 1024.4 hPa | 0 mm | - | 1 W/m² | - |
| 1777397730 | 7.78° C | 47% | 1024.2 hPa | 0 mm | - | 9 W/m² | - |
| 1777397428 | 7.78° C | 45% | 1024.2 hPa | 0 mm | - | 11 W/m² | - |
| 1777397128 | 7.22° C | 47% | 1024.1 hPa | 0 mm | - | 13 W/m² | - |
| 1777396826 | 7.78° C | 49% | 1024.1 hPa | 0 mm | - | 17 W/m² | - |
| 1777396223 | 8.33° C | 46% | 1024.1 hPa | 0 mm | - | 21 W/m² | - |
| 1777395620 | 8.89° C | 43% | 1024.1 hPa | 0 mm | - | 28 W/m² | - |
* Rain latest hour (hover to see other rain measurements)
** Current wind speed in m/s (hover to see current wind gust speed)